Time;durP1;ratioP1;P1;durP2;ratioP2;P2;SDS_P1;SDS_P2;PMS_P1;PMS_P2;Temp;Humidity;BMP_temperature;BMP_pressure;BME280_temperature;BME280_humidity;BME280_pressure;Samples;Min_cycle;Max_cycle;Signal;HPM_P1;HPM_P2
2022/01/08 00:02:13;;;;;;;17.53;11.40;;;3.80;1.00;;;;;;5081309;28;20203;-60
2022/01/08 00:04:38;;;;;;;17.70;12.10;;;3.80;1.00;;;;;;5090532;28;20189;-60
2022/01/08 00:07:04;;;;;;;16.97;12.10;;;3.70;1.00;;;;;;5082744;28;20450;-60
2022/01/08 00:09:29;;;;;;;17.83;12.43;;;3.70;1.00;;;;;;5085411;28;20187;-60
2022/01/08 00:11:55;;;;;;;17.10;12.10;;;3.70;1.00;;;;;;5058020;28;20319;-59
2022/01/08 00:14:22;;;;;;;18.50;12.60;;;3.80;1.00;;;;;;5078250;28;20630;-59
2022/01/08 00:16:48;;;;;;;19.53;12.60;;;;;;;;;;5078783;28;20260;-60
2022/01/08 00:19:14;;;;;;;17.73;11.90;;;3.90;1.00;;;;;;5075042;28;20532;-60
2022/01/08 00:21:40;;;;;;;15.90;11.57;;;4.10;1.00;;;;;;5082005;28;21033;-59
2022/01/08 00:24:06;;;;;;;16.63;10.83;;;4.10;1.00;;;;;;5081493;28;21096;-59
2022/01/08 00:26:31;;;;;;;18.13;11.53;;;4.20;1.00;;;;;;5084174;28;20442;-60
2022/01/08 00:28:57;;;;;;;14.43;11.20;;;4.40;1.00;;;;;;5084475;28;20180;-59
2022/01/08 00:31:23;;;;;;;17.97;11.30;;;4.50;1.00;;;;;;5070003;28;20198;-60
2022/01/08 00:33:49;;;;;;;16.47;11.57;;;;;;;;;;5076223;28;20199;-60
2022/01/08 00:36:14;;;;;;;17.07;11.47;;;4.30;1.00;;;;;;5083740;28;20939;-60
2022/01/08 00:38:40;;;;;;;21.00;12.20;;;4.40;1.00;;;;;;5088438;28;20455;-59
2022/01/08 00:41:06;;;;;;;16.17;10.47;;;4.40;1.00;;;;;;5083130;28;20188;-60
2022/01/08 00:43:32;;;;;;;14.83;10.53;;;4.40;1.00;;;;;;5086996;28;20219;-59
2022/01/08 00:45:57;;;;;;;19.13;11.37;;;4.30;1.00;;;;;;5081433;28;20190;-59
2022/01/08 00:48:23;;;;;;;15.30;11.10;;;4.30;1.00;;;;;;5079890;28;20850;-60
2022/01/08 00:50:49;;;;;;;16.10;11.00;;;4.20;1.00;;;;;;5079393;28;20229;-60
2022/01/08 00:53:15;;;;;;;19.57;10.20;;;4.20;1.00;;;;;;5063841;28;20258;-60
2022/01/08 00:55:41;;;;;;;14.87;9.83;;;;;;;;;;5082234;28;20480;-59
2022/01/08 00:58:07;;;;;;;15.00;10.73;;;4.20;1.00;;;;;;5082096;28;20181;-59
2022/01/08 01:00:32;;;;;;;17.27;12.60;;;4.30;1.00;;;;;;5080830;28;20455;-60
2022/01/08 01:02:58;;;;;;;15.30;10.37;;;4.20;1.00;;;;;;5076259;28;20192;-60
2022/01/08 01:05:24;;;;;;;17.70;10.77;;;;;;;;;;5078064;28;20193;-59
2022/01/08 01:07:50;;;;;;;13.77;9.53;;;4.30;1.00;;;;;;5077972;28;20193;-62
2022/01/08 01:10:17;;;;;;;15.77;10.80;;;4.30;1.00;;;;;;5083373;28;20453;-59
2022/01/08 01:12:43;;;;;;;13.53;9.93;;;4.30;1.00;;;;;;5073335;28;20210;-59
2022/01/08 01:15:14;;;;;;;12.30;9.60;;;4.30;1.00;;;;;;5078796;28;20471;-59
2022/01/08 01:17:41;;;;;;;16.90;11.17;;;4.40;1.00;;;;;;5064492;28;20196;-60
2022/01/08 01:20:08;;;;;;;18.50;10.67;;;4.50;1.00;;;;;;5078567;28;20442;-60
2022/01/08 01:23:11;;;;;;;13.20;9.93;;;4.50;1.00;;;;;;5079499;28;20472;-58
2022/01/08 01:25:32;;;;;;;17.17;10.07;;;4.50;1.00;;;;;;5059696;28;20454;-59
2022/01/08 01:41:09;;;;;;;13.20;9.40;;;4.50;1.00;;;;;;5082479;28;20483;-58
2022/01/08 01:47:19;;;;;;;12.83;8.57;;;4.00;1.00;;;;;;5067680;28;20447;-61
2022/01/08 01:49:46;;;;;;;9.33;7.30;;;3.80;1.00;;;;;;5092997;28;20449;-59
2022/01/08 01:52:14;;;;;;;10.50;8.60;;;3.70;1.00;;;;;;5081727;28;20448;-60
2022/01/08 01:54:41;;;;;;;14.53;9.50;;;3.70;1.00;;;;;;5083014;28;20470;-58
2022/01/08 01:57:08;;;;;;;11.87;8.03;;;3.60;1.00;;;;;;5084949;28;20450;-59
2022/01/08 01:59:35;;;;;;;10.43;7.67;;;3.60;1.00;;;;;;5069477;28;20893;-59
2022/01/08 02:02:01;;;;;;;11.10;7.67;;;3.60;1.00;;;;;;5085517;28;20454;-60
2022/01/08 02:04:27;;;;;;;11.30;7.53;;;3.60;1.00;;;;;;5086601;28;20551;-60
2022/01/08 02:06:53;;;;;;;10.50;7.23;;;3.70;1.00;;;;;;5085723;28;20542;-58
2022/01/08 02:09:18;;;;;;;10.03;6.73;;;3.70;1.00;;;;;;5066535;28;20276;-58
2022/01/08 02:12:12;;;;;;;10.17;6.53;;;3.70;1.00;;;;;;5080561;28;20197;-59
2022/01/08 02:14:39;;;;;;;10.20;6.23;;;3.70;1.00;;;;;;5083725;28;20642;-60
2022/01/08 02:17:06;;;;;;;9.07;7.07;;;3.70;1.00;;;;;;5079223;28;20833;-58
2022/01/08 02:19:32;;;;;;;9.77;6.37;;;;;;;;;;5058859;28;20476;-58
2022/01/08 02:22:01;;;;;;;10.53;6.73;;;3.60;1.00;;;;;;5083393;28;20468;-58
2022/01/08 02:24:27;;;;;;;9.80;6.43;;;3.50;1.00;;;;;;5082777;28;20510;-58
2022/01/08 02:26:53;;;;;;;6.97;5.97;;;3.50;1.00;;;;;;5059211;28;20821;-58
2022/01/08 02:29:21;;;;;;;6.57;5.57;;;3.50;1.00;;;;;;5079223;28;20451;-58
2022/01/08 02:31:54;;;;;;;7.47;5.40;;;3.40;1.00;;;;;;5100554;28;20473;-58
2022/01/08 02:34:20;;;;;;;7.80;6.10;;;3.30;1.00;;;;;;5085320;28;20496;-59
2022/01/08 02:36:45;;;;;;;9.77;6.10;;;3.40;1.00;;;;;;5083269;28;20556;-61
2022/01/08 02:39:12;;;;;;;8.07;5.73;;;;;;;;;;5088917;28;20178;-60
2022/01/08 02:41:39;;;;;;;7.73;5.90;;;3.30;1.00;;;;;;5076812;28;20207;-59
2022/01/08 02:44:08;;;;;;;10.17;6.70;;;3.20;1.00;;;;;;5085558;28;20429;-58
2022/01/08 02:46:34;;;;;;;11.40;6.67;;;3.30;1.00;;;;;;5078632;28;20927;-59
2022/01/08 02:48:59;;;;;;;10.23;7.03;;;3.40;1.00;;;;;;5079345;28;20497;-58
2022/01/08 02:51:25;;;;;;;7.30;5.40;;;3.40;1.00;;;;;;5076262;28;20282;-59
2022/01/08 02:53:51;;;;;;;10.50;7.37;;;3.40;1.00;;;;;;5078719;28;20204;-60
2022/01/08 02:56:17;;;;;;;7.50;5.90;;;3.40;1.00;;;;;;5066466;28;20668;-58
2022/01/08 02:58:43;;;;;;;7.93;6.10;;;3.40;1.00;;;;;;5086649;28;20460;-58
2022/01/08 03:01:09;;;;;;;9.83;6.73;;;3.40;1.00;;;;;;5065096;28;20521;-59
2022/01/08 03:03:34;;;;;;;8.07;5.90;;;3.20;1.00;;;;;;5079420;28;20187;-60
2022/01/08 03:06:00;;;;;;;9.40;6.97;;;3.20;1.00;;;;;;5081653;28;20188;-60
2022/01/08 03:08:26;;;;;;;9.63;6.60;;;3.20;1.00;;;;;;5083582;28;20188;-60
2022/01/08 03:10:53;;;;;;;8.40;5.60;;;3.20;1.00;;;;;;5083797;28;20574;-59
2022/01/08 03:13:19;;;;;;;9.77;7.37;;;;;;;;;;5085987;28;20433;-59
2022/01/08 03:15:44;;;;;;;7.50;6.27;;;3.20;1.00;;;;;;5081240;28;20479;-58
2022/01/08 03:18:10;;;;;;;6.17;5.50;;;3.20;1.00;;;;;;5087218;28;20447;-59
2022/01/08 03:20:44;;;;;;;9.20;6.47;;;3.10;1.00;;;;;;5085018;28;20192;-59
2022/01/08 03:23:14;;;;;;;9.77;7.03;;;3.00;1.00;;;;;;5079457;28;20779;-59
2022/01/08 03:25:40;;;;;;;11.73;6.93;;;2.90;1.00;;;;;;5081740;28;20525;-60
2022/01/08 03:28:06;;;;;;;10.13;6.40;;;;;;;;;;5079641;28;20553;-59
2022/01/08 03:30:34;;;;;;;9.70;7.03;;;2.90;1.00;;;;;;5078634;28;20195;-59
2022/01/08 03:33:00;;;;;;;11.83;6.80;;;;;;;;;;5076442;28;20451;-58
2022/01/08 03:35:26;;;;;;;8.43;7.20;;;2.90;1.00;;;;;;5078428;28;20569;-58
2022/01/08 03:37:52;;;;;;;9.83;7.57;;;2.90;1.00;;;;;;5085405;28;20440;-59
2022/01/08 03:40:17;;;;;;;8.53;6.93;;;2.90;1.00;;;;;;5079021;28;20492;-60
2022/01/08 03:42:43;;;;;;;8.97;6.40;;;2.80;1.00;;;;;;5079169;28;20239;-60
2022/01/08 03:45:09;;;;;;;7.50;5.80;;;2.80;1.00;;;;;;5082679;28;20653;-58
2022/01/08 03:48:06;;;;;;;10.47;6.27;;;2.80;1.00;;;;;;5082272;28;20843;-59
2022/01/08 03:50:32;;;;;;;7.53;6.67;;;2.80;1.00;;;;;;5080780;28;20458;-59
2022/01/08 03:52:57;;;;;;;9.70;6.20;;;2.80;1.00;;;;;;5087131;28;21172;-59
2022/01/08 03:55:23;;;;;;;8.37;6.77;;;;;;;;;;5068290;28;20470;-59
2022/01/08 03:57:49;;;;;;;8.13;6.00;;;2.90;1.00;;;;;;5072206;28;20188;-58
2022/01/08 04:00:15;;;;;;;9.43;5.73;;;2.90;1.00;;;;;;5064569;28;20442;-59
2022/01/08 04:02:40;;;;;;;9.27;6.23;;;3.10;1.00;;;;;;5065205;28;20200;-59
2022/01/08 04:05:07;;;;;;;7.57;5.83;;;3.20;1.00;;;;;;5079844;28;20283;-58
2022/01/08 04:07:33;;;;;;;6.90;5.93;;;;;;;;;;5070991;28;20206;-60
2022/01/08 04:09:58;;;;;;;7.33;5.20;;;3.50;1.00;;;;;;5083415;28;20449;-59
2022/01/08 04:12:49;;;;;;;7.70;5.80;;;3.70;1.00;;;;;;5086751;28;20439;-58
2022/01/08 04:18:06;;;;;;;3.67;3.13;;;4.10;1.00;;;;;;5075230;28;20797;-60
2022/01/08 04:20:37;;;;;;;4.37;3.13;;;4.40;1.00;;;;;;5092084;28;20447;-59
2022/01/08 04:23:03;;;;;;;2.33;2.13;;;4.50;1.00;;;;;;5079586;28;20473;-59
2022/01/08 04:25:30;;;;;;;5.03;3.90;;;4.60;1.00;;;;;;5082603;28;20472;-59
2022/01/08 04:27:56;;;;;;;3.70;2.50;;;4.70;1.00;;;;;;5083101;28;20186;-60
2022/01/08 04:30:21;;;;;;;3.07;2.57;;;4.70;1.00;;;;;;5084374;28;20447;-59
2022/01/08 04:32:47;;;;;;;3.10;2.90;;;4.70;1.00;;;;;;5078577;28;20473;-59
2022/01/08 04:35:13;;;;;;;2.70;2.33;;;4.70;1.00;;;;;;5082636;28;20211;-59
2022/01/08 04:37:39;;;;;;;3.10;2.80;;;4.70;1.00;;;;;;5070867;28;20263;-59
2022/01/08 04:40:05;;;;;;;6.30;4.30;;;4.70;1.00;;;;;;5080001;28;20537;-59
2022/01/08 04:42:31;;;;;;;5.43;4.60;;;;;;;;;;5083538;28;20182;-59
2022/01/08 04:44:57;;;;;;;10.50;6.70;;;;;;;;;;5060479;28;20512;-60
2022/01/08 04:47:23;;;;;;;8.50;6.23;;;4.20;1.00;;;;;;5081163;28;20442;-60
2022/01/08 04:49:48;;;;;;;15.77;7.47;;;4.10;1.00;;;;;;5083903;28;20443;-59
2022/01/08 04:52:14;;;;;;;10.37;7.83;;;4.10;1.00;;;;;;5080337;28;20292;-59
2022/01/08 04:54:39;;;;;;;8.57;6.77;;;4.00;1.00;;;;;;5083483;28;20210;-59
2022/01/08 04:57:05;;;;;;;10.07;7.27;;;4.00;1.00;;;;;;5080497;28;20186;-60
2022/01/08 04:59:30;;;;;;;8.20;6.13;;;3.80;1.00;;;;;;5079321;28;20227;-59
2022/01/08 05:01:56;;;;;;;9.90;7.40;;;3.70;1.00;;;;;;5080323;28;20518;-59
2022/01/08 05:04:22;;;;;;;11.33;8.80;;;3.70;1.00;;;;;;5082921;28;20201;-60
2022/01/08 05:06:47;;;;;;;7.57;6.50;;;;;;;;;;5082335;28;20652;-58
2022/01/08 05:09:13;;;;;;;12.53;8.07;;;3.90;1.00;;;;;;5078699;28;20189;-59
2022/01/08 05:11:39;;;;;;;9.60;6.53;;;;;;;;;;5081145;28;20899;-58
2022/01/08 05:14:08;;;;;;;12.83;6.70;;;;;;;;;;5079581;28;20199;-59
2022/01/08 05:16:33;;;;;;;9.23;6.10;;;3.90;1.00;;;;;;5073969;28;20455;-59
2022/01/08 05:19:00;;;;;;;9.30;7.30;;;3.90;1.00;;;;;;5075432;28;20453;-59
2022/01/08 05:21:29;;;;;;;12.30;6.67;;;;;;;;;;5057278;28;20238;-58
2022/01/08 05:23:57;;;;;;;10.43;7.83;;;3.90;1.00;;;;;;5075692;28;20480;-58
2022/01/08 05:26:25;;;;;;;9.70;6.80;;;4.00;1.00;;;;;;5075348;28;21136;-60
2022/01/08 05:28:51;;;;;;;10.03;7.23;;;3.90;1.00;;;;;;5076273;28;20450;-58
2022/01/08 05:31:19;;;;;;;10.30;7.17;;;3.90;1.00;;;;;;5058722;28;20449;-59
2022/01/08 05:33:45;;;;;;;7.90;6.17;;;3.90;1.00;;;;;;5060228;28;21318;-59
2022/01/08 05:36:11;;;;;;;6.60;5.90;;;;;;;;;;5081412;28;20444;-59
2022/01/08 05:38:36;;;;;;;7.87;7.07;;;4.00;1.00;;;;;;5085187;28;20204;-60
2022/01/08 05:41:02;;;;;;;8.30;6.70;;;4.00;1.00;;;;;;5082585;28;20482;-59
2022/01/08 05:43:28;;;;;;;11.17;7.20;;;;;;;;;;5059825;28;20655;-60
2022/01/08 05:45:56;;;;;;;8.83;6.90;;;4.00;1.00;;;;;;5076627;28;20461;-59
2022/01/08 05:48:22;;;;;;;8.37;6.33;;;4.00;1.00;;;;;;5079794;28;20481;-58
2022/01/08 05:50:49;;;;;;;8.50;6.33;;;4.00;1.00;;;;;;5073665;28;20503;-59
2022/01/08 05:53:18;;;;;;;7.20;6.33;;;4.00;1.00;;;;;;5070225;28;20507;-59
2022/01/08 05:55:44;;;;;;;10.20;7.33;;;4.10;1.00;;;;;;5080222;28;20520;-60
2022/01/08 05:58:10;;;;;;;9.60;6.87;;;4.10;1.00;;;;;;5075381;28;20441;-58
2022/01/08 06:00:35;;;;;;;9.20;6.47;;;4.10;1.00;;;;;;5073198;28;20437;-58
2022/01/08 06:03:01;;;;;;;7.47;5.63;;;4.10;1.00;;;;;;5085035;28;20194;-59
2022/01/08 06:05:27;;;;;;;7.40;5.60;;;4.00;1.00;;;;;;5081879;28;20207;-59
2022/01/08 06:07:52;;;;;;;9.20;6.80;;;4.00;1.00;;;;;;5077526;28;20187;-59
2022/01/08 06:10:19;;;;;;;7.33;6.23;;;3.90;1.00;;;;;;5062524;28;20269;-60
2022/01/08 06:12:45;;;;;;;7.57;5.87;;;3.90;1.00;;;;;;5080662;28;20633;-60
2022/01/08 06:15:11;;;;;;;6.57;5.80;;;;;;;;;;5051755;28;20461;-59
2022/01/08 06:17:37;;;;;;;7.53;5.53;;;3.90;1.00;;;;;;5080041;28;20468;-60
2022/01/08 06:20:04;;;;;;;10.00;7.10;;;4.00;1.00;;;;;;5075535;28;20495;-58
2022/01/08 06:22:29;;;;;;;9.50;6.77;;;;;;;;;;5064488;28;20219;-59
2022/01/08 06:24:55;;;;;;;9.60;6.50;;;3.90;1.00;;;;;;5084577;28;20445;-60
2022/01/08 06:27:21;;;;;;;9.83;6.97;;;;;;;;;;5079185;28;20456;-60
2022/01/08 06:29:47;;;;;;;10.70;7.17;;;3.90;1.00;;;;;;5064952;28;20197;-60
2022/01/08 06:32:14;;;;;;;7.60;6.07;;;3.90;1.00;;;;;;5091688;28;20434;-58
2022/01/08 06:34:40;;;;;;;7.03;6.33;;;4.00;1.00;;;;;;5082818;28;20292;-59
2022/01/08 06:37:06;;;;;;;7.33;6.07;;;4.00;1.00;;;;;;5089434;28;20438;-59
2022/01/08 06:39:32;;;;;;;10.47;7.43;;;;;;;;;;5088003;28;20800;-56
2022/01/08 06:41:57;;;;;;;10.40;7.00;;;4.00;1.00;;;;;;5085147;28;20198;-58
2022/01/08 06:44:23;;;;;;;8.53;7.37;;;4.10;1.00;;;;;;5079105;28;21087;-59
2022/01/08 06:46:49;;;;;;;9.50;6.97;;;4.10;1.00;;;;;;5077292;28;20188;-60
2022/01/08 06:49:15;;;;;;;11.17;7.43;;;4.20;1.00;;;;;;5077278;28;20232;-60
2022/01/08 06:51:41;;;;;;;11.60;8.10;;;;;;;;;;5075428;28;20208;-58
2022/01/08 06:54:06;;;;;;;12.50;8.80;;;;;;;;;;5073764;28;20202;-61
2022/01/08 06:56:32;;;;;;;10.00;7.67;;;4.40;1.00;;;;;;5074744;28;20550;-59
2022/01/08 06:58:58;;;;;;;9.37;8.37;;;4.30;1.00;;;;;;5073999;28;20435;-60
2022/01/08 07:01:24;;;;;;;10.27;8.30;;;4.40;1.00;;;;;;5077276;28;20184;-59
2022/01/08 07:03:50;;;;;;;11.67;8.33;;;4.50;1.00;;;;;;5072754;28;20172;-59
2022/01/08 07:06:15;;;;;;;9.33;7.70;;;4.60;1.00;;;;;;5070572;28;20175;-59
2022/01/08 07:08:41;;;;;;;9.97;7.70;;;4.60;1.00;;;;;;5073212;28;20938;-59
2022/01/08 07:11:07;;;;;;;9.93;8.17;;;4.70;1.00;;;;;;5075288;28;20164;-58
2022/01/08 07:13:32;;;;;;;11.37;8.00;;;4.70;1.00;;;;;;5055002;28;20679;-59
2022/01/08 07:15:58;;;;;;;13.43;8.27;;;4.70;1.00;;;;;;5067304;28;20211;-60
2022/01/08 07:18:23;;;;;;;10.20;8.50;;;4.90;1.00;;;;;;5075971;28;20807;-60
2022/01/08 07:20:49;;;;;;;12.03;9.03;;;4.80;1.00;;;;;;5075171;28;20412;-59
2022/01/08 07:23:15;;;;;;;11.03;7.47;;;;;;;;;;5051681;28;20230;-58
2022/01/08 07:25:40;;;;;;;9.83;7.80;;;4.60;1.00;;;;;;5058248;28;20192;-62
2022/01/08 07:28:06;;;;;;;9.03;7.40;;;4.60;1.00;;;;;;5057106;28;20455;-61
2022/01/08 07:30:32;;;;;;;11.20;8.87;;;;;;;;;;5060570;28;20196;-60
2022/01/08 07:32:58;;;;;;;11.83;9.23;;;4.80;1.00;;;;;;5055596;28;20186;-61
2022/01/08 07:35:23;;;;;;;12.73;8.47;;;4.80;1.00;;;;;;5054718;28;20504;-61
2022/01/08 07:37:51;;;;;;;12.23;8.20;;;4.80;1.00;;;;;;5059259;28;20191;-60
2022/01/08 07:40:18;;;;;;;10.87;8.23;;;5.00;1.00;;;;;;5059991;28;20185;-61
2022/01/08 07:42:44;;;;;;;12.07;9.10;;;5.00;1.00;;;;;;5061376;28;20448;-61
2022/01/08 07:45:10;;;;;;;12.63;9.23;;;5.20;1.00;;;;;;5060028;28;20960;-62
2022/01/08 07:47:36;;;;;;;13.20;10.10;;;5.10;1.00;;;;;;5060365;28;20207;-62
2022/01/08 07:50:02;;;;;;;12.63;10.43;;;5.00;1.00;;;;;;5062606;28;20447;-61
2022/01/08 07:52:28;;;;;;;12.90;9.10;;;5.20;1.00;;;;;;5061607;28;20192;-61
2022/01/08 07:54:54;;;;;;;10.37;7.70;;;5.10;1.00;;;;;;5064949;28;20480;-62
2022/01/08 07:57:20;;;;;;;10.30;8.47;;;5.00;1.00;;;;;;5059503;28;20495;-62
2022/01/08 07:59:46;;;;;;;12.53;9.73;;;5.10;1.00;;;;;;5065787;28;20635;-61
2022/01/08 08:02:11;;;;;;;11.87;8.70;;;5.10;1.00;;;;;;5061309;28;20186;-60
2022/01/08 08:04:37;;;;;;;12.27;9.23;;;5.20;1.00;;;;;;5061410;28;20478;-62
2022/01/08 08:07:03;;;;;;;13.90;9.13;;;;;;;;;;5067481;28;20243;-61
2022/01/08 08:09:29;;;;;;;12.50;9.30;;;5.20;1.00;;;;;;5053195;28;20574;-61
2022/01/08 08:11:54;;;;;;;11.10;8.50;;;5.10;1.00;;;;;;5055911;28;20535;-62
2022/01/08 08:14:20;;;;;;;12.17;8.80;;;5.10;1.00;;;;;;5057670;28;20200;-62
2022/01/08 08:16:46;;;;;;;12.60;8.80;;;;;;;;;;5056763;28;20183;-62
2022/01/08 08:19:12;;;;;;;12.63;9.37;;;5.20;1.00;;;;;;5061645;28;20211;-62
2022/01/08 08:21:38;;;;;;;10.07;8.07;;;;;;;;;;5065965;28;20933;-62
2022/01/08 08:24:06;;;;;;;9.87;7.93;;;5.10;1.00;;;;;;5070622;28;20251;-63
2022/01/08 08:26:32;;;;;;;10.70;8.60;;;5.20;1.00;;;;;;5080224;28;20494;-64
2022/01/08 08:28:57;;;;;;;10.87;8.27;;;5.20;1.00;;;;;;5085034;28;20451;-63
2022/01/08 08:31:23;;;;;;;10.73;8.40;;;5.30;1.00;;;;;;5083704;28;20473;-62
2022/01/08 08:33:48;;;;;;;11.33;8.77;;;5.20;1.00;;;;;;5082630;28;20199;-63
2022/01/08 08:36:14;;;;;;;10.07;7.77;;;5.30;1.00;;;;;;5076555;28;20188;-62
2022/01/08 08:38:40;;;;;;;9.30;7.47;;;;;;;;;;5075179;28;20201;-62
2022/01/08 08:41:06;;;;;;;9.50;7.00;;;5.20;1.00;;;;;;5077391;28;20183;-61
2022/01/08 08:43:31;;;;;;;10.60;7.70;;;5.20;1.00;;;;;;5081141;28;20510;-63
2022/01/08 08:45:57;;;;;;;8.67;7.30;;;5.20;1.00;;;;;;5086894;28;20187;-64
2022/01/08 08:48:22;;;;;;;10.57;7.60;;;5.30;1.00;;;;;;5083396;28;20557;-61
2022/01/08 08:50:48;;;;;;;9.23;8.23;;;5.40;1.00;;;;;;5075565;28;20186;-63
2022/01/08 08:53:14;;;;;;;8.77;7.27;;;;;;;;;;5085801;28;20212;-63
2022/01/08 08:55:40;;;;;;;8.23;7.30;;;5.50;1.00;;;;;;5082691;28;20235;-63
2022/01/08 08:58:05;;;;;;;9.10;7.17;;;5.60;1.00;;;;;;5075144;28;20448;-62
2022/01/08 09:00:31;;;;;;;10.50;8.43;;;5.70;1.00;;;;;;5081992;28;20191;-62
2022/01/08 09:02:56;;;;;;;8.33;6.90;;;5.70;1.00;;;;;;5076562;28;20223;-63
2022/01/08 09:05:22;;;;;;;9.40;7.40;;;5.70;1.00;;;;;;5083153;28;20229;-63
2022/01/08 09:07:48;;;;;;;9.77;7.67;;;;;;;;;;5080735;28;20198;-63
2022/01/08 09:10:14;;;;;;;8.37;6.90;;;5.90;1.00;;;;;;5083240;28;20440;-62
2022/01/08 09:12:41;;;;;;;8.50;6.80;;;5.90;1.00;;;;;;5063629;28;20477;-62
2022/01/08 09:15:08;;;;;;;8.77;6.70;;;6.00;1.00;;;;;;5076738;28;20205;-62
2022/01/08 09:17:36;;;;;;;9.53;7.90;;;6.10;1.00;;;;;;5097546;28;20439;-62
2022/01/08 09:20:04;;;;;;;7.33;6.20;;;6.00;1.00;;;;;;5065056;28;20446;-62
2022/01/08 09:22:30;;;;;;;7.50;6.50;;;6.10;1.00;;;;;;5076431;28;20481;-63
2022/01/08 09:24:56;;;;;;;9.53;8.47;;;6.00;1.00;;;;;;5083465;28;20874;-63
2022/01/08 09:27:22;;;;;;;9.00;6.90;;;6.00;1.00;;;;;;5079280;28;20471;-64
2022/01/08 09:29:48;;;;;;;8.37;6.50;;;6.00;1.00;;;;;;5078283;28;20981;-63
2022/01/08 09:32:14;;;;;;;11.10;6.60;;;6.00;1.00;;;;;;5062975;28;20440;-63
2022/01/08 09:34:40;;;;;;;9.10;6.23;;;6.00;1.00;;;;;;5079579;28;20520;-64
2022/01/08 09:37:06;;;;;;;8.10;6.53;;;6.00;1.00;;;;;;5083070;28;20190;-64
2022/01/08 09:39:32;;;;;;;8.87;6.30;;;6.00;1.00;;;;;;5074934;28;20444;-64
2022/01/08 09:41:59;;;;;;;9.03;8.10;;;6.00;1.00;;;;;;5083373;28;20181;-63
2022/01/08 09:44:24;;;;;;;10.97;7.93;;;5.90;1.00;;;;;;5076676;28;20776;-64
2022/01/08 09:46:50;;;;;;;8.40;7.23;;;5.90;1.00;;;;;;5074822;28;20554;-63
2022/01/08 09:49:22;;;;;;;9.50;7.40;;;5.80;1.00;;;;;;5078609;28;20198;-64
2022/01/08 09:51:47;;;;;;;8.80;7.30;;;5.90;1.00;;;;;;5074179;28;20659;-63
2022/01/08 09:54:13;;;;;;;10.17;8.00;;;;;;;;;;5077823;28;20463;-64
2022/01/08 09:56:39;;;;;;;8.63;7.07;;;5.80;1.00;;;;;;5084025;28;20190;-63
2022/01/08 09:59:04;;;;;;;12.07;8.13;;;5.70;1.00;;;;;;5079023;28;20771;-63
2022/01/08 10:01:35;;;;;;;9.67;8.03;;;5.90;1.00;;;;;;5078310;28;20185;-63
2022/01/08 10:04:02;;;;;;;12.83;9.83;;;5.80;1.00;;;;;;5083007;28;20266;-64
2022/01/08 10:06:34;;;;;;;14.73;9.63;;;5.80;1.00;;;;;;5082637;28;20480;-63
2022/01/08 10:09:00;;;;;;;12.20;9.20;;;5.90;1.00;;;;;;5076338;28;21017;-63
2022/01/08 10:11:28;;;;;;;12.30;9.80;;;5.70;1.00;;;;;;5082991;28;20477;-63
2022/01/08 10:14:05;;;;;;;13.07;10.37;;;5.90;1.00;;;;;;5062989;28;20956;-63
2022/01/08 10:19:25;;;;;;;11.90;10.20;;;6.20;1.00;;;;;;5090021;28;20447;-63
2022/01/08 10:21:54;;;;;;;12.50;10.33;;;6.30;1.00;;;;;;5081835;28;20432;-65
2022/01/08 10:24:29;;;;;;;15.03;10.70;;;6.50;1.00;;;;;;5092921;28;20462;-63
2022/01/08 10:27:03;;;;;;;14.63;10.50;;;6.50;1.00;;;;;;5082678;28;20436;-64
2022/01/08 10:29:29;;;;;;;13.53;9.60;;;6.50;1.00;;;;;;5080410;28;20446;-63
2022/01/08 10:31:56;;;;;;;12.13;9.57;;;6.50;1.00;;;;;;5080739;28;20451;-63
2022/01/08 10:34:32;;;;;;;12.77;10.00;;;6.50;1.00;;;;;;5084641;28;20474;-64
2022/01/08 10:37:01;;;;;;;12.43;9.57;;;6.40;1.00;;;;;;5059283;28;20443;-63
2022/01/08 10:39:35;;;;;;;10.87;9.40;;;6.30;1.00;;;;;;5083121;28;20506;-63
2022/01/08 10:42:16;;;;;;;15.20;12.47;;;6.30;1.00;;;;;;5085628;28;21712;-63
2022/01/08 10:44:43;;;;;;;12.67;10.37;;;6.30;1.00;;;;;;5084448;28;20438;-62
2022/01/08 10:47:12;;;;;;;14.73;10.57;;;6.30;1.00;;;;;;5087122;28;20455;-62
2022/01/08 10:49:43;;;;;;;12.10;9.97;;;6.30;1.00;;;;;;5084882;28;20463;-62
2022/01/08 10:52:15;;;;;;;16.70;11.63;;;6.40;1.00;;;;;;5085863;28;20466;-62
2022/01/08 10:54:43;;;;;;;13.83;11.07;;;6.40;1.00;;;;;;5087447;28;20560;-62
2022/01/08 10:57:12;;;;;;;14.80;11.13;;;6.30;1.00;;;;;;5088858;28;20963;-62
2022/01/08 10:59:38;;;;;;;14.50;11.10;;;6.30;1.00;;;;;;5088671;28;20437;-62
2022/01/08 11:02:14;;;;;;;13.57;10.57;;;6.30;1.00;;;;;;5083139;28;20445;-62
2022/01/08 11:04:52;;;;;;;13.23;10.40;;;6.20;1.00;;;;;;5058119;28;20469;-62
2022/01/08 11:07:30;;;;;;;12.50;11.07;;;6.20;1.00;;;;;;5082472;28;20447;-61
2022/01/08 11:10:06;;;;;;;14.30;11.90;;;6.30;1.00;;;;;;5077915;28;20980;-62
2022/01/08 11:12:36;;;;;;;14.17;11.30;;;;;;;;;;5087789;28;20447;-63
2022/01/08 11:17:42;;;;;;;18.13;11.87;;;5.90;1.00;;;;;;5083257;28;20437;-63
2022/01/08 11:20:08;;;;;;;16.57;11.57;;;;;;;;;;5088284;28;20462;-63
2022/01/08 11:22:36;;;;;;;14.20;11.07;;;5.80;1.00;;;;;;5058303;28;20464;-63
2022/01/08 11:25:12;;;;;;;15.27;11.83;;;5.70;1.00;;;;;;5086231;28;20474;-63
2022/01/08 11:28:08;;;;;;;17.13;12.37;;;5.70;1.00;;;;;;5085775;28;20452;-63
2022/01/08 11:30:50;;;;;;;14.70;11.43;;;5.60;1.00;;;;;;5086258;28;20444;-62
2022/01/08 11:33:26;;;;;;;13.20;11.27;;;5.60;1.00;;;;;;5085526;28;20430;-63
2022/01/08 11:35:53;;;;;;;15.90;12.47;;;5.50;1.00;;;;;;5085215;28;20470;-63
2022/01/08 11:38:20;;;;;;;15.53;10.70;;;5.50;1.00;;;;;;5088227;28;20437;-63
2022/01/08 11:40:48;;;;;;;13.90;11.80;;;5.60;1.00;;;;;;5085363;28;20468;-63
2022/01/08 11:43:16;;;;;;;17.43;12.80;;;5.60;1.00;;;;;;5087461;28;20438;-58
2022/01/08 11:46:04;;;;;;;13.50;10.80;;;5.70;1.00;;;;;;5076366;28;20911;-62
2022/01/08 11:48:39;;;;;;;15.17;11.30;;;5.80;1.00;;;;;;5082101;28;20446;-63
2022/01/08 11:51:06;;;;;;;12.13;10.30;;;5.80;1.00;;;;;;5077686;28;20664;-63
2022/01/08 11:53:49;;;;;;;17.00;11.60;;;5.80;1.00;;;;;;5081039;28;20949;-63
2022/01/08 11:56:30;;;;;;;16.93;12.00;;;5.70;1.00;;;;;;5059640;28;20480;-61
2022/01/08 11:59:15;;;;;;;15.10;11.33;;;5.80;1.00;;;;;;5077548;28;20439;-63
2022/01/08 12:02:01;;;;;;;17.87;12.30;;;5.70;1.00;;;;;;5074943;28;20447;-59
2022/01/08 12:04:31;;;;;;;13.57;11.13;;;5.60;1.00;;;;;;5077143;28;22210;-62
2022/01/08 12:06:57;;;;;;;16.63;12.20;;;5.60;1.00;;;;;;5077045;28;20437;-60
2022/01/08 12:09:25;;;;;;;14.43;11.73;;;;;;;;;;5072074;28;20474;-64
2022/01/08 12:11:58;;;;;;;17.43;12.20;;;5.60;1.00;;;;;;5072237;28;20193;-64
2022/01/08 12:14:36;;;;;;;17.03;12.83;;;5.50;1.00;;;;;;5072289;28;20463;-64
2022/01/08 12:17:21;;;;;;;15.70;11.27;;;5.40;1.00;;;;;;5069737;28;20776;-65
2022/01/08 12:19:57;;;;;;;19.17;12.33;;;5.40;1.00;;;;;;5075011;28;20428;-64
2022/01/08 12:22:23;;;;;;;17.43;13.60;;;;;;;;;;5072500;28;20471;-64
2022/01/08 12:24:51;;;;;;;18.17;13.40;;;5.60;1.00;;;;;;5075007;28;20456;-64
2022/01/08 12:27:39;;;;;;;16.33;12.20;;;;;;;;;;5071146;28;20927;-64
2022/01/08 12:30:05;;;;;;;15.67;12.50;;;;;;;;;;5074977;28;20458;-63
2022/01/08 12:32:36;;;;;;;18.80;13.00;;;5.70;1.00;;;;;;5072992;28;20440;-63
2022/01/08 12:35:26;;;;;;;16.40;11.60;;;5.70;1.00;;;;;;5077881;28;20794;-64
2022/01/08 12:38:00;;;;;;;19.97;14.80;;;5.60;1.00;;;;;;5066706;28;20937;-65
2022/01/08 12:40:49;;;;;;;21.03;14.97;;;5.50;1.00;;;;;;5053220;28;20722;-65
2022/01/08 12:43:24;;;;;;;17.97;12.70;;;5.50;1.00;;;;;;5065526;28;20798;-59
2022/01/08 12:46:17;;;;;;;16.70;11.97;;;5.60;1.00;;;;;;5068446;28;20447;-61
2022/01/08 12:49:09;;;;;;;16.70;13.63;;;5.40;1.00;;;;;;5065627;28;20445;-64
2022/01/08 12:51:49;;;;;;;17.90;13.67;;;5.60;1.00;;;;;;5065320;28;20490;-64
2022/01/08 12:54:20;;;;;;;19.63;15.43;;;5.60;1.00;;;;;;5072121;28;20455;-62
2022/01/08 12:56:51;;;;;;;19.30;13.93;;;5.60;1.00;;;;;;5069621;28;20441;-63
2022/01/08 12:59:17;;;;;;;20.03;14.53;;;5.60;1.00;;;;;;5069771;28;20459;-64
2022/01/08 13:01:47;;;;;;;20.60;15.10;;;5.70;1.00;;;;;;5065818;28;20573;-65
2022/01/08 13:04:16;;;;;;;16.53;12.77;;;;;;;;;;5065746;28;20501;-64
2022/01/08 13:06:43;;;;;;;22.10;14.67;;;5.60;1.00;;;;;;5066125;28;21977;-65
2022/01/08 13:09:09;;;;;;;18.23;14.20;;;5.60;1.00;;;;;;5069966;28;20449;-65
2022/01/08 13:11:37;;;;;;;22.20;15.10;;;5.60;1.00;;;;;;5065052;28;20452;-62
2022/01/08 13:14:05;;;;;;;21.27;15.70;;;5.60;1.00;;;;;;5067669;28;20510;-65
2022/01/08 13:16:42;;;;;;;19.60;14.87;;;7.70;1.00;;;;;;5070190;28;20954;-65
2022/01/08 13:19:13;;;;;;;21.30;15.27;;;5.50;1.00;;;;;;5066014;28;20979;-66
2022/01/08 13:21:46;;;;;;;21.00;15.67;;;5.50;1.00;;;;;;5065395;28;20443;-65
2022/01/08 13:24:23;;;;;;;25.27;16.67;;;5.50;1.00;;;;;;5064891;28;21135;-65
2022/01/08 13:26:54;;;;;;;20.37;15.63;;;5.50;1.00;;;;;;5051194;28;20458;-66
2022/01/08 13:29:22;;;;;;;18.90;13.83;;;5.50;1.00;;;;;;5067139;28;20452;-66
2022/01/08 13:31:52;;;;;;;21.43;15.40;;;5.40;1.00;;;;;;5066614;28;20503;-66
2022/01/08 13:34:18;;;;;;;18.87;14.80;;;;;;;;;;5071004;28;20463;-67
2022/01/08 13:36:53;;;;;;;20.27;16.10;;;5.60;1.00;;;;;;5069029;28;20458;-65
2022/01/08 13:39:32;;;;;;;19.20;14.20;;;5.60;1.00;;;;;;5070477;28;20443;-66